sensor_id;sensor_type;location;lat;lon;timestamp;P1;durP1;ratioP1;P2;durP2;ratioP2
17696;SDS011;8967;47.984;7.842;2023-11-19T00:00:50;5.38;;;0.80;;
17696;SDS011;8967;47.984;7.842;2023-11-19T00:03:17;0.50;;;0.50;;
17696;SDS011;8967;47.984;7.842;2023-11-19T00:05:44;1.67;;;0.70;;
17696;SDS011;8967;47.984;7.842;2023-11-19T00:08:14;1.20;;;0.80;;
17696;SDS011;8967;47.984;7.842;2023-11-19T00:10:41;1.88;;;0.80;;
17696;SDS011;8967;47.984;7.842;2023-11-19T00:13:08;4.18;;;0.50;;
17696;SDS011;8967;47.984;7.842;2023-11-19T00:15:35;1.20;;;0.60;;
17696;SDS011;8967;47.984;7.842;2023-11-19T00:18:04;0.35;;;0.32;;
17696;SDS011;8967;47.984;7.842;2023-11-19T00:20:31;0.75;;;0.68;;
17696;SDS011;8967;47.984;7.842;2023-11-19T00:22:58;0.75;;;0.52;;
17696;SDS011;8967;47.984;7.842;2023-11-19T00:25:27;0.52;;;0.50;;
17696;SDS011;8967;47.984;7.842;2023-11-19T00:27:54;4.30;;;0.57;;
17696;SDS011;8967;47.984;7.842;2023-11-19T00:30:24;4.47;;;0.50;;
17696;SDS011;8967;47.984;7.842;2023-11-19T00:32:54;0.90;;;0.60;;
17696;SDS011;8967;47.984;7.842;2023-11-19T00:35:24;2.65;;;0.70;;
17696;SDS011;8967;47.984;7.842;2023-11-19T00:37:54;0.73;;;0.55;;
17696;SDS011;8967;47.984;7.842;2023-11-19T00:40:21;2.78;;;0.60;;
17696;SDS011;8967;47.984;7.842;2023-11-19T00:42:52;1.65;;;0.47;;
17696;SDS011;8967;47.984;7.842;2023-11-19T00:45:19;1.25;;;0.70;;
17696;SDS011;8967;47.984;7.842;2023-11-19T00:47:46;2.13;;;0.70;;
17696;SDS011;8967;47.984;7.842;2023-11-19T00:50:15;0.60;;;0.60;;
17696;SDS011;8967;47.984;7.842;2023-11-19T00:52:49;0.50;;;0.50;;
17696;SDS011;8967;47.984;7.842;2023-11-19T00:55:17;3.08;;;1.17;;
17696;SDS011;8967;47.984;7.842;2023-11-19T00:57:44;1.13;;;1.02;;
17696;SDS011;8967;47.984;7.842;2023-11-19T01:00:12;2.63;;;0.55;;
17696;SDS011;8967;47.984;7.842;2023-11-19T01:02:44;1.10;;;0.68;;
17696;SDS011;8967;47.984;7.842;2023-11-19T01:05:11;1.30;;;0.90;;
17696;SDS011;8967;47.984;7.842;2023-11-19T01:07:42;0.82;;;0.70;;
17696;SDS011;8967;47.984;7.842;2023-11-19T01:10:11;1.00;;;0.65;;
17696;SDS011;8967;47.984;7.842;2023-11-19T01:12:38;1.52;;;0.70;;
17696;SDS011;8967;47.984;7.842;2023-11-19T01:15:05;0.90;;;0.63;;
17696;SDS011;8967;47.984;7.842;2023-11-19T01:17:33;0.68;;;0.68;;
17696;SDS011;8967;47.984;7.842;2023-11-19T01:20:03;1.38;;;0.65;;
17696;SDS011;8967;47.984;7.842;2023-11-19T01:22:32;2.90;;;0.60;;
17696;SDS011;8967;47.984;7.842;2023-11-19T01:24:59;1.80;;;0.68;;
17696;SDS011;8967;47.984;7.842;2023-11-19T01:27:28;0.65;;;0.57;;
17696;SDS011;8967;47.984;7.842;2023-11-19T01:29:55;1.38;;;0.70;;
17696;SDS011;8967;47.984;7.842;2023-11-19T01:32:23;0.40;;;0.40;;
17696;SDS011;8967;47.984;7.842;2023-11-19T01:34:50;0.88;;;0.57;;
17696;SDS011;8967;47.984;7.842;2023-11-19T01:37:19;1.75;;;0.60;;
17696;SDS011;8967;47.984;7.842;2023-11-19T01:39:46;0.63;;;0.60;;
17696;SDS011;8967;47.984;7.842;2023-11-19T01:42:16;0.90;;;0.60;;
17696;SDS011;8967;47.984;7.842;2023-11-19T01:44:56;0.55;;;0.55;;
17696;SDS011;8967;47.984;7.842;2023-11-19T01:47:25;0.57;;;0.50;;
17696;SDS011;8967;47.984;7.842;2023-11-19T01:49:52;1.75;;;0.60;;
17696;SDS011;8967;47.984;7.842;2023-11-19T01:52:21;0.50;;;0.50;;
17696;SDS011;8967;47.984;7.842;2023-11-19T01:54:52;0.90;;;0.50;;
17696;SDS011;8967;47.984;7.842;2023-11-19T01:57:20;0.65;;;0.60;;
17696;SDS011;8967;47.984;7.842;2023-11-19T01:59:51;2.05;;;0.80;;
17696;SDS011;8967;47.984;7.842;2023-11-19T02:02:23;1.80;;;0.50;;
17696;SDS011;8967;47.984;7.842;2023-11-19T02:04:51;0.70;;;0.70;;
17696;SDS011;8967;47.984;7.842;2023-11-19T02:07:19;1.08;;;0.98;;
17696;SDS011;8967;47.984;7.842;2023-11-19T02:09:47;2.65;;;0.90;;
17696;SDS011;8967;47.984;7.842;2023-11-19T02:12:14;2.83;;;0.88;;
17696;SDS011;8967;47.984;7.842;2023-11-19T02:14:43;1.33;;;0.85;;
17696;SDS011;8967;47.984;7.842;2023-11-19T02:19:54;2.40;;;0.70;;
17696;SDS011;8967;47.984;7.842;2023-11-19T02:22:21;1.30;;;0.82;;
17696;SDS011;8967;47.984;7.842;2023-11-19T02:24:49;4.35;;;0.73;;
17696;SDS011;8967;47.984;7.842;2023-11-19T02:27:22;2.58;;;0.80;;
17696;SDS011;8967;47.984;7.842;2023-11-19T02:29:56;2.28;;;1.20;;
17696;SDS011;8967;47.984;7.842;2023-11-19T02:32:24;1.88;;;1.13;;
17696;SDS011;8967;47.984;7.842;2023-11-19T02:34:56;2.55;;;0.98;;
17696;SDS011;8967;47.984;7.842;2023-11-19T02:37:28;2.03;;;0.82;;
17696;SDS011;8967;47.984;7.842;2023-11-19T02:39:55;2.53;;;1.23;;
17696;SDS011;8967;47.984;7.842;2023-11-19T02:42:22;0.90;;;0.90;;
17696;SDS011;8967;47.984;7.842;2023-11-19T02:44:49;1.33;;;1.08;;
17696;SDS011;8967;47.984;7.842;2023-11-19T02:47:22;2.00;;;1.77;;
17696;SDS011;8967;47.984;7.842;2023-11-19T02:49:49;1.30;;;1.20;;
17696;SDS011;8967;47.984;7.842;2023-11-19T02:52:18;2.25;;;0.80;;
17696;SDS011;8967;47.984;7.842;2023-11-19T02:54:48;1.48;;;0.98;;
17696;SDS011;8967;47.984;7.842;2023-11-19T02:57:16;1.95;;;1.00;;
17696;SDS011;8967;47.984;7.842;2023-11-19T02:59:44;1.23;;;0.95;;
17696;SDS011;8967;47.984;7.842;2023-11-19T03:02:14;1.02;;;0.77;;
17696;SDS011;8967;47.984;7.842;2023-11-19T03:04:45;2.80;;;1.02;;
17696;SDS011;8967;47.984;7.842;2023-11-19T03:07:12;2.17;;;0.90;;
17696;SDS011;8967;47.984;7.842;2023-11-19T03:09:39;1.45;;;0.75;;
17696;SDS011;8967;47.984;7.842;2023-11-19T03:12:09;0.73;;;0.70;;
17696;SDS011;8967;47.984;7.842;2023-11-19T03:14:36;3.78;;;1.10;;
17696;SDS011;8967;47.984;7.842;2023-11-19T03:17:04;1.38;;;0.77;;
17696;SDS011;8967;47.984;7.842;2023-11-19T03:19:33;1.88;;;1.20;;
17696;SDS011;8967;47.984;7.842;2023-11-19T03:22:02;1.10;;;0.98;;
17696;SDS011;8967;47.984;7.842;2023-11-19T03:24:29;2.78;;;0.77;;
17696;SDS011;8967;47.984;7.842;2023-11-19T03:26:57;4.47;;;0.80;;
17696;SDS011;8967;47.984;7.842;2023-11-19T03:29:24;1.58;;;0.95;;
17696;SDS011;8967;47.984;7.842;2023-11-19T03:31:51;1.92;;;0.85;;
17696;SDS011;8967;47.984;7.842;2023-11-19T03:34:18;1.85;;;0.90;;
17696;SDS011;8967;47.984;7.842;2023-11-19T03:36:48;1.13;;;0.85;;
17696;SDS011;8967;47.984;7.842;2023-11-19T03:39:16;12.90;;;1.02;;
17696;SDS011;8967;47.984;7.842;2023-11-19T03:41:45;0.80;;;0.80;;
17696;SDS011;8967;47.984;7.842;2023-11-19T03:44:13;0.82;;;0.70;;
17696;SDS011;8967;47.984;7.842;2023-11-19T03:46:40;2.15;;;0.90;;
17696;SDS011;8967;47.984;7.842;2023-11-19T03:49:07;1.55;;;0.60;;
17696;SDS011;8967;47.984;7.842;2023-11-19T03:51:34;1.40;;;0.73;;
17696;SDS011;8967;47.984;7.842;2023-11-19T03:54:04;0.82;;;0.70;;
17696;SDS011;8967;47.984;7.842;2023-11-19T03:56:34;1.80;;;1.00;;
17696;SDS011;8967;47.984;7.842;2023-11-19T03:59:01;1.67;;;0.80;;
17696;SDS011;8967;47.984;7.842;2023-11-19T04:01:28;0.60;;;0.60;;
17696;SDS011;8967;47.984;7.842;2023-11-19T04:03:55;2.13;;;0.70;;
17696;SDS011;8967;47.984;7.842;2023-11-19T04:06:24;2.65;;;0.60;;
17696;SDS011;8967;47.984;7.842;2023-11-19T04:08:52;5.18;;;0.75;;
17696;SDS011;8967;47.984;7.842;2023-11-19T04:11:21;2.38;;;0.73;;
17696;SDS011;8967;47.984;7.842;2023-11-19T04:13:50;0.50;;;0.50;;
17696;SDS011;8967;47.984;7.842;2023-11-19T04:16:19;0.95;;;0.52;;
17696;SDS011;8967;47.984;7.842;2023-11-19T04:18:56;0.50;;;0.50;;
17696;SDS011;8967;47.984;7.842;2023-11-19T04:21:24;5.82;;;0.82;;
17696;SDS011;8967;47.984;7.842;2023-11-19T04:23:52;0.70;;;0.63;;
17696;SDS011;8967;47.984;7.842;2023-11-19T04:26:19;0.40;;;0.40;;
17696;SDS011;8967;47.984;7.842;2023-11-19T04:28:46;0.45;;;0.43;;
17696;SDS011;8967;47.984;7.842;2023-11-19T04:31:16;2.28;;;0.40;;
17696;SDS011;8967;47.984;7.842;2023-11-19T04:33:43;0.75;;;0.40;;
17696;SDS011;8967;47.984;7.842;2023-11-19T04:36:10;2.25;;;0.60;;
17696;SDS011;8967;47.984;7.842;2023-11-19T04:38:39;0.30;;;0.30;;
17696;SDS011;8967;47.984;7.842;2023-11-19T04:41:06;0.60;;;0.30;;
17696;SDS011;8967;47.984;7.842;2023-11-19T04:43:33;0.30;;;0.30;;
17696;SDS011;8967;47.984;7.842;2023-11-19T04:46:03;0.30;;;0.30;;
17696;SDS011;8967;47.984;7.842;2023-11-19T04:48:31;0.47;;;0.30;;
17696;SDS011;8967;47.984;7.842;2023-11-19T04:51:01;0.40;;;0.40;;
17696;SDS011;8967;47.984;7.842;2023-11-19T04:53:30;0.17;;;0.17;;
17696;SDS011;8967;47.984;7.842;2023-11-19T04:55:58;0.47;;;0.20;;
17696;SDS011;8967;47.984;7.842;2023-11-19T04:58:25;1.67;;;0.20;;
17696;SDS011;8967;47.984;7.842;2023-11-19T05:00:52;0.25;;;0.25;;
17696;SDS011;8967;47.984;7.842;2023-11-19T05:03:19;0.30;;;0.30;;
17696;SDS011;8967;47.984;7.842;2023-11-19T05:05:49;0.40;;;0.40;;
17696;SDS011;8967;47.984;7.842;2023-11-19T05:08:16;0.63;;;0.40;;
17696;SDS011;8967;47.984;7.842;2023-11-19T05:10:45;0.13;;;0.13;;
17696;SDS011;8967;47.984;7.842;2023-11-19T05:13:15;0.30;;;0.30;;
17696;SDS011;8967;47.984;7.842;2023-11-19T05:15:42;0.65;;;0.22;;
17696;SDS011;8967;47.984;7.842;2023-11-19T05:18:09;0.60;;;0.30;;
17696;SDS011;8967;47.984;7.842;2023-11-19T05:20:39;0.45;;;0.30;;
17696;SDS011;8967;47.984;7.842;2023-11-19T05:23:07;0.50;;;0.50;;
17696;SDS011;8967;47.984;7.842;2023-11-19T05:25:34;0.38;;;0.38;;
17696;SDS011;8967;47.984;7.842;2023-11-19T05:28:03;1.63;;;0.40;;
17696;SDS011;8967;47.984;7.842;2023-11-19T05:30:30;0.32;;;0.32;;
17696;SDS011;8967;47.984;7.842;2023-11-19T05:32:59;0.30;;;0.30;;
17696;SDS011;8967;47.984;7.842;2023-11-19T05:35:27;0.22;;;0.22;;
17696;SDS011;8967;47.984;7.842;2023-11-19T05:37:56;1.48;;;0.20;;
17696;SDS011;8967;47.984;7.842;2023-11-19T05:40:25;0.25;;;0.25;;
17696;SDS011;8967;47.984;7.842;2023-11-19T05:42:52;0.30;;;0.30;;
17696;SDS011;8967;47.984;7.842;2023-11-19T05:45:19;0.22;;;0.22;;
17696;SDS011;8967;47.984;7.842;2023-11-19T05:47:48;0.50;;;0.50;;
17696;SDS011;8967;47.984;7.842;2023-11-19T05:50:17;0.30;;;0.30;;
17696;SDS011;8967;47.984;7.842;2023-11-19T05:52:44;0.90;;;0.30;;
17696;SDS011;8967;47.984;7.842;2023-11-19T05:55:12;0.10;;;0.10;;
17696;SDS011;8967;47.984;7.842;2023-11-19T05:57:40;0.35;;;0.15;;
17696;SDS011;8967;47.984;7.842;2023-11-19T06:00:08;0.40;;;0.20;;
17696;SDS011;8967;47.984;7.842;2023-11-19T06:02:38;0.30;;;0.30;;
17696;SDS011;8967;47.984;7.842;2023-11-19T06:05:05;0.30;;;0.30;;
17696;SDS011;8967;47.984;7.842;2023-11-19T06:07:33;0.77;;;0.20;;
17696;SDS011;8967;47.984;7.842;2023-11-19T06:10:01;0.52;;;0.40;;
17696;SDS011;8967;47.984;7.842;2023-11-19T06:12:28;0.20;;;0.20;;
17696;SDS011;8967;47.984;7.842;2023-11-19T06:15:00;0.40;;;0.40;;
17696;SDS011;8967;47.984;7.842;2023-11-19T06:17:27;0.30;;;0.30;;
17696;SDS011;8967;47.984;7.842;2023-11-19T06:19:54;0.60;;;0.40;;
17696;SDS011;8967;47.984;7.842;2023-11-19T06:22:23;0.40;;;0.40;;
17696;SDS011;8967;47.984;7.842;2023-11-19T06:24:50;0.30;;;0.30;;
17696;SDS011;8967;47.984;7.842;2023-11-19T06:27:17;0.10;;;0.10;;
17696;SDS011;8967;47.984;7.842;2023-11-19T06:29:45;0.30;;;0.30;;
17696;SDS011;8967;47.984;7.842;2023-11-19T06:32:13;0.30;;;0.30;;
17696;SDS011;8967;47.984;7.842;2023-11-19T06:34:41;0.85;;;0.40;;
17696;SDS011;8967;47.984;7.842;2023-11-19T06:37:08;0.90;;;0.60;;
17696;SDS011;8967;47.984;7.842;2023-11-19T06:39:38;1.05;;;0.35;;
17696;SDS011;8967;47.984;7.842;2023-11-19T06:42:05;0.20;;;0.20;;
17696;SDS011;8967;47.984;7.842;2023-11-19T06:44:33;0.30;;;0.30;;
17696;SDS011;8967;47.984;7.842;2023-11-19T06:47:00;0.40;;;0.40;;
17696;SDS011;8967;47.984;7.842;2023-11-19T06:49:29;0.30;;;0.30;;
17696;SDS011;8967;47.984;7.842;2023-11-19T06:51:56;1.17;;;0.45;;
17696;SDS011;8967;47.984;7.842;2023-11-19T06:54:23;0.20;;;0.20;;
17696;SDS011;8967;47.984;7.842;2023-11-19T06:56:50;0.32;;;0.30;;
17696;SDS011;8967;47.984;7.842;2023-11-19T06:59:17;0.43;;;0.30;;
17696;SDS011;8967;47.984;7.842;2023-11-19T07:04:41;0.32;;;0.32;;
17696;SDS011;8967;47.984;7.842;2023-11-19T07:07:08;0.30;;;0.30;;
17696;SDS011;8967;47.984;7.842;2023-11-19T07:09:35;0.90;;;0.30;;
17696;SDS011;8967;47.984;7.842;2023-11-19T07:12:03;0.47;;;0.30;;
17696;SDS011;8967;47.984;7.842;2023-11-19T07:14:31;0.50;;;0.50;;
17696;SDS011;8967;47.984;7.842;2023-11-19T07:16:59;0.43;;;0.40;;
17696;SDS011;8967;47.984;7.842;2023-11-19T07:19:35;0.40;;;0.40;;
17696;SDS011;8967;47.984;7.842;2023-11-19T07:22:09;0.40;;;0.40;;
17696;SDS011;8967;47.984;7.842;2023-11-19T07:24:38;0.70;;;0.50;;
17696;SDS011;8967;47.984;7.842;2023-11-19T07:27:05;0.30;;;0.30;;
17696;SDS011;8967;47.984;7.842;2023-11-19T07:29:37;0.28;;;0.28;;
17696;SDS011;8967;47.984;7.842;2023-11-19T07:32:04;2.10;;;0.40;;
17696;SDS011;8967;47.984;7.842;2023-11-19T07:34:33;2.65;;;0.47;;
17696;SDS011;8967;47.984;7.842;2023-11-19T07:37:03;0.82;;;0.50;;
17696;SDS011;8967;47.984;7.842;2023-11-19T07:39:33;0.70;;;0.40;;
17696;SDS011;8967;47.984;7.842;2023-11-19T07:42:03;0.50;;;0.50;;
17696;SDS011;8967;47.984;7.842;2023-11-19T07:44:30;0.57;;;0.52;;
17696;SDS011;8967;47.984;7.842;2023-11-19T07:47:03;1.95;;;0.50;;
17696;SDS011;8967;47.984;7.842;2023-11-19T07:49:30;0.50;;;0.50;;
17696;SDS011;8967;47.984;7.842;2023-11-19T07:51:59;1.30;;;0.60;;
17696;SDS011;8967;47.984;7.842;2023-11-19T07:54:28;0.52;;;0.43;;
17696;SDS011;8967;47.984;7.842;2023-11-19T07:56:57;0.70;;;0.65;;
17696;SDS011;8967;47.984;7.842;2023-11-19T07:59:24;1.30;;;0.40;;
17696;SDS011;8967;47.984;7.842;2023-11-19T08:01:55;0.30;;;0.30;;
17696;SDS011;8967;47.984;7.842;2023-11-19T08:04:23;0.60;;;0.47;;
17696;SDS011;8967;47.984;7.842;2023-11-19T08:06:50;0.73;;;0.50;;
17696;SDS011;8967;47.984;7.842;2023-11-19T08:09:17;0.47;;;0.47;;
17696;SDS011;8967;47.984;7.842;2023-11-19T08:11:44;0.82;;;0.47;;
17696;SDS011;8967;47.984;7.842;2023-11-19T08:14:15;1.05;;;0.50;;
17696;SDS011;8967;47.984;7.842;2023-11-19T08:16:42;0.47;;;0.40;;
17696;SDS011;8967;47.984;7.842;2023-11-19T08:19:09;0.65;;;0.50;;
17696;SDS011;8967;47.984;7.842;2023-11-19T08:21:36;0.40;;;0.40;;
17696;SDS011;8967;47.984;7.842;2023-11-19T08:24:03;0.60;;;0.60;;
17696;SDS011;8967;47.984;7.842;2023-11-19T08:26:31;0.52;;;0.43;;
17696;SDS011;8967;47.984;7.842;2023-11-19T08:28:58;1.73;;;0.65;;
17696;SDS011;8967;47.984;7.842;2023-11-19T08:31:26;0.38;;;0.38;;
17696;SDS011;8967;47.984;7.842;2023-11-19T08:33:54;0.50;;;0.40;;
17696;SDS011;8967;47.984;7.842;2023-11-19T08:36:21;0.50;;;0.50;;
17696;SDS011;8967;47.984;7.842;2023-11-19T08:38:48;1.45;;;0.60;;
17696;SDS011;8967;47.984;7.842;2023-11-19T08:41:17;1.23;;;0.52;;
17696;SDS011;8967;47.984;7.842;2023-11-19T08:43:44;1.80;;;0.70;;
17696;SDS011;8967;47.984;7.842;2023-11-19T08:46:12;1.23;;;0.55;;
17696;SDS011;8967;47.984;7.842;2023-11-19T08:48:43;0.60;;;0.60;;
17696;SDS011;8967;47.984;7.842;2023-11-19T08:51:11;2.55;;;1.27;;
17696;SDS011;8967;47.984;7.842;2023-11-19T08:53:38;1.70;;;0.65;;
17696;SDS011;8967;47.984;7.842;2023-11-19T08:56:08;1.92;;;0.93;;
17696;SDS011;8967;47.984;7.842;2023-11-19T08:58:35;0.70;;;0.68;;
17696;SDS011;8967;47.984;7.842;2023-11-19T09:01:02;0.80;;;0.55;;
17696;SDS011;8967;47.984;7.842;2023-11-19T09:03:31;2.10;;;0.50;;
17696;SDS011;8967;47.984;7.842;2023-11-19T09:05:59;1.67;;;0.68;;
17696;SDS011;8967;47.984;7.842;2023-11-19T09:08:27;0.95;;;0.40;;
17696;SDS011;8967;47.984;7.842;2023-11-19T09:10:54;2.05;;;0.50;;
17696;SDS011;8967;47.984;7.842;2023-11-19T09:16:20;1.33;;;0.52;;
17696;SDS011;8967;47.984;7.842;2023-11-19T09:18:50;3.65;;;0.60;;
17696;SDS011;8967;47.984;7.842;2023-11-19T09:21:18;0.80;;;0.60;;
17696;SDS011;8967;47.984;7.842;2023-11-19T09:23:48;0.60;;;0.60;;
17696;SDS011;8967;47.984;7.842;2023-11-19T09:26:15;1.52;;;1.27;;
17696;SDS011;8967;47.984;7.842;2023-11-19T09:28:42;2.13;;;0.50;;
17696;SDS011;8967;47.984;7.842;2023-11-19T09:31:14;3.60;;;0.55;;
17696;SDS011;8967;47.984;7.842;2023-11-19T09:33:41;0.68;;;0.68;;
17696;SDS011;8967;47.984;7.842;2023-11-19T09:36:09;1.17;;;0.80;;
17696;SDS011;8967;47.984;7.842;2023-11-19T09:38:43;0.60;;;0.60;;
17696;SDS011;8967;47.984;7.842;2023-11-19T09:41:12;2.70;;;0.73;;
17696;SDS011;8967;47.984;7.842;2023-11-19T09:43:42;1.15;;;0.80;;
17696;SDS011;8967;47.984;7.842;2023-11-19T09:46:10;1.02;;;0.80;;
17696;SDS011;8967;47.984;7.842;2023-11-19T09:48:39;0.75;;;0.60;;
17696;SDS011;8967;47.984;7.842;2023-11-19T09:51:09;1.77;;;0.50;;
17696;SDS011;8967;47.984;7.842;2023-11-19T09:53:37;1.38;;;0.73;;
17696;SDS011;8967;47.984;7.842;2023-11-19T09:56:08;0.55;;;0.55;;
17696;SDS011;8967;47.984;7.842;2023-11-19T09:58:37;1.33;;;0.70;;
17696;SDS011;8967;47.984;7.842;2023-11-19T10:01:05;0.80;;;0.70;;
17696;SDS011;8967;47.984;7.842;2023-11-19T10:03:35;1.20;;;1.08;;
17696;SDS011;8967;47.984;7.842;2023-11-19T10:06:04;1.10;;;1.00;;
17696;SDS011;8967;47.984;7.842;2023-11-19T10:08:33;1.33;;;0.90;;
17696;SDS011;8967;47.984;7.842;2023-11-19T10:11:01;1.60;;;0.63;;
17696;SDS011;8967;47.984;7.842;2023-11-19T10:13:29;1.10;;;0.70;;
17696;SDS011;8967;47.984;7.842;2023-11-19T10:15:56;0.80;;;0.80;;
17696;SDS011;8967;47.984;7.842;2023-11-19T10:18:26;0.70;;;0.63;;
17696;SDS011;8967;47.984;7.842;2023-11-19T10:20:53;1.15;;;0.50;;
17696;SDS011;8967;47.984;7.842;2023-11-19T10:23:21;1.73;;;0.95;;
17696;SDS011;8967;47.984;7.842;2023-11-19T10:25:48;1.67;;;0.65;;
17696;SDS011;8967;47.984;7.842;2023-11-19T10:28:19;1.20;;;0.70;;
17696;SDS011;8967;47.984;7.842;2023-11-19T10:30:48;0.77;;;0.57;;
17696;SDS011;8967;47.984;7.842;2023-11-19T10:33:15;3.88;;;0.80;;
17696;SDS011;8967;47.984;7.842;2023-11-19T10:35:51;1.20;;;0.60;;
17696;SDS011;8967;47.984;7.842;2023-11-19T10:38:19;0.75;;;0.75;;
17696;SDS011;8967;47.984;7.842;2023-11-19T10:40:49;1.30;;;0.50;;
17696;SDS011;8967;47.984;7.842;2023-11-19T10:43:17;0.60;;;0.50;;
17696;SDS011;8967;47.984;7.842;2023-11-19T10:45:48;0.40;;;0.40;;
17696;SDS011;8967;47.984;7.842;2023-11-19T10:48:16;0.70;;;0.50;;
17696;SDS011;8967;47.984;7.842;2023-11-19T10:54:01;1.95;;;0.80;;
17696;SDS011;8967;47.984;7.842;2023-11-19T10:56:33;0.93;;;0.60;;
17696;SDS011;8967;47.984;7.842;2023-11-19T10:59:01;1.08;;;0.30;;
17696;SDS011;8967;47.984;7.842;2023-11-19T11:01:34;1.77;;;0.50;;
17696;SDS011;8967;47.984;7.842;2023-11-19T11:04:11;0.50;;;0.50;;
17696;SDS011;8967;47.984;7.842;2023-11-19T11:06:41;1.77;;;0.55;;
17696;SDS011;8967;47.984;7.842;2023-11-19T11:09:09;0.93;;;0.50;;
17696;SDS011;8967;47.984;7.842;2023-11-19T11:11:38;0.47;;;0.47;;
17696;SDS011;8967;47.984;7.842;2023-11-19T11:14:09;0.45;;;0.45;;
17696;SDS011;8967;47.984;7.842;2023-11-19T11:16:43;0.70;;;0.50;;
17696;SDS011;8967;47.984;7.842;2023-11-19T11:19:13;0.32;;;0.32;;
17696;SDS011;8967;47.984;7.842;2023-11-19T11:21:43;1.65;;;0.70;;
17696;SDS011;8967;47.984;7.842;2023-11-19T11:24:25;0.57;;;0.50;;
17696;SDS011;8967;47.984;7.842;2023-11-19T11:30:08;1.52;;;0.40;;
17696;SDS011;8967;47.984;7.842;2023-11-19T11:32:44;0.90;;;0.50;;
17696;SDS011;8967;47.984;7.842;2023-11-19T11:35:24;0.80;;;0.70;;
17696;SDS011;8967;47.984;7.842;2023-11-19T11:38:00;1.98;;;0.55;;
17696;SDS011;8967;47.984;7.842;2023-11-19T11:40:29;0.43;;;0.43;;
17696;SDS011;8967;47.984;7.842;2023-11-19T11:42:57;0.70;;;0.70;;
17696;SDS011;8967;47.984;7.842;2023-11-19T11:45:36;1.17;;;0.73;;
17696;SDS011;8967;47.984;7.842;2023-11-19T11:48:08;2.05;;;0.90;;
17696;SDS011;8967;47.984;7.842;2023-11-19T11:50:47;1.88;;;0.82;;
17696;SDS011;8967;47.984;7.842;2023-11-19T11:53:16;0.68;;;0.68;;
17696;SDS011;8967;47.984;7.842;2023-11-19T11:55:56;1.20;;;0.68;;
17696;SDS011;8967;47.984;7.842;2023-11-19T11:58:31;1.95;;;0.98;;
17696;SDS011;8967;47.984;7.842;2023-11-19T12:01:03;0.70;;;0.60;;
17696;SDS011;8967;47.984;7.842;2023-11-19T12:03:38;1.83;;;0.70;;
17696;SDS011;8967;47.984;7.842;2023-11-19T12:06:07;0.93;;;0.70;;
17696;SDS011;8967;47.984;7.842;2023-11-19T12:08:34;1.60;;;0.65;;
17696;SDS011;8967;47.984;7.842;2023-11-19T12:11:02;2.05;;;0.85;;
17696;SDS011;8967;47.984;7.842;2023-11-19T12:13:42;1.48;;;0.80;;
17696;SDS011;8967;47.984;7.842;2023-11-19T12:16:13;1.52;;;0.93;;
17696;SDS011;8967;47.984;7.842;2023-11-19T12:18:42;0.95;;;0.70;;
17696;SDS011;8967;47.984;7.842;2023-11-19T12:21:10;1.75;;;0.73;;
17696;SDS011;8967;47.984;7.842;2023-11-19T12:23:44;1.38;;;0.88;;
17696;SDS011;8967;47.984;7.842;2023-11-19T12:26:32;2.72;;;0.73;;
17696;SDS011;8967;47.984;7.842;2023-11-19T12:29:01;1.73;;;0.75;;
17696;SDS011;8967;47.984;7.842;2023-11-19T12:31:33;0.80;;;0.60;;
17696;SDS011;8967;47.984;7.842;2023-11-19T12:34:11;0.93;;;0.70;;
17696;SDS011;8967;47.984;7.842;2023-11-19T12:36:41;1.13;;;0.80;;
17696;SDS011;8967;47.984;7.842;2023-11-19T12:39:08;1.25;;;0.47;;
17696;SDS011;8967;47.984;7.842;2023-11-19T12:41:52;1.75;;;0.85;;
17696;SDS011;8967;47.984;7.842;2023-11-19T12:44:20;1.90;;;0.60;;
17696;SDS011;8967;47.984;7.842;2023-11-19T12:46:58;2.55;;;0.77;;
17696;SDS011;8967;47.984;7.842;2023-11-19T12:49:28;2.47;;;1.48;;
17696;SDS011;8967;47.984;7.842;2023-11-19T12:51:55;1.58;;;0.90;;
17696;SDS011;8967;47.984;7.842;2023-11-19T12:54:31;1.02;;;0.80;;
17696;SDS011;8967;47.984;7.842;2023-11-19T12:56:59;1.63;;;0.60;;
17696;SDS011;8967;47.984;7.842;2023-11-19T12:59:28;3.13;;;0.85;;
17696;SDS011;8967;47.984;7.842;2023-11-19T13:01:55;0.95;;;0.70;;
17696;SDS011;8967;47.984;7.842;2023-11-19T13:04:23;1.90;;;0.50;;
17696;SDS011;8967;47.984;7.842;2023-11-19T13:06:56;0.55;;;0.55;;
17696;SDS011;8967;47.984;7.842;2023-11-19T13:09:24;0.80;;;0.80;;
17696;SDS011;8967;47.984;7.842;2023-11-19T13:11:52;1.02;;;0.70;;
17696;SDS011;8967;47.984;7.842;2023-11-19T13:14:19;1.17;;;0.80;;
17696;SDS011;8967;47.984;7.842;2023-11-19T13:16:47;0.95;;;0.80;;
17696;SDS011;8967;47.984;7.842;2023-11-19T13:19:14;1.70;;;1.20;;
17696;SDS011;8967;47.984;7.842;2023-11-19T13:21:47;2.70;;;0.95;;
17696;SDS011;8967;47.984;7.842;2023-11-19T13:24:14;1.35;;;0.70;;
17696;SDS011;8967;47.984;7.842;2023-11-19T13:26:43;0.55;;;0.40;;
17696;SDS011;8967;47.984;7.842;2023-11-19T13:29:11;5.22;;;1.00;;
17696;SDS011;8967;47.984;7.842;2023-11-19T13:31:38;1.52;;;0.98;;
17696;SDS011;8967;47.984;7.842;2023-11-19T13:34:05;4.50;;;1.20;;
17696;SDS011;8967;47.984;7.842;2023-11-19T13:36:33;1.13;;;0.70;;
17696;SDS011;8967;47.984;7.842;2023-11-19T13:39:01;3.10;;;0.80;;
17696;SDS011;8967;47.984;7.842;2023-11-19T13:41:31;1.00;;;0.77;;
17696;SDS011;8967;47.984;7.842;2023-11-19T13:44:03;0.88;;;0.68;;
17696;SDS011;8967;47.984;7.842;2023-11-19T13:46:33;1.05;;;0.95;;
17696;SDS011;8967;47.984;7.842;2023-11-19T13:49:00;0.82;;;0.70;;
17696;SDS011;8967;47.984;7.842;2023-11-19T13:51:28;1.77;;;0.70;;
17696;SDS011;8967;47.984;7.842;2023-11-19T13:53:55;4.65;;;0.98;;
17696;SDS011;8967;47.984;7.842;2023-11-19T13:56:24;1.08;;;0.70;;
17696;SDS011;8967;47.984;7.842;2023-11-19T13:58:51;1.67;;;0.80;;
17696;SDS011;8967;47.984;7.842;2023-11-19T14:01:19;4.97;;;0.75;;
17696;SDS011;8967;47.984;7.842;2023-11-19T14:03:46;0.77;;;0.75;;
17696;SDS011;8967;47.984;7.842;2023-11-19T14:06:15;1.25;;;0.82;;
17696;SDS011;8967;47.984;7.842;2023-11-19T14:08:44;1.85;;;0.90;;
17696;SDS011;8967;47.984;7.842;2023-11-19T14:11:11;2.00;;;1.02;;
17696;SDS011;8967;47.984;7.842;2023-11-19T14:13:40;1.77;;;0.77;;
17696;SDS011;8967;47.984;7.842;2023-11-19T14:16:07;0.60;;;0.60;;
17696;SDS011;8967;47.984;7.842;2023-11-19T14:18:34;3.42;;;0.73;;
17696;SDS011;8967;47.984;7.842;2023-11-19T14:21:02;3.50;;;0.80;;
17696;SDS011;8967;47.984;7.842;2023-11-19T14:23:30;3.40;;;0.80;;
17696;SDS011;8967;47.984;7.842;2023-11-19T14:25:57;0.77;;;0.77;;
17696;SDS011;8967;47.984;7.842;2023-11-19T14:28:24;1.90;;;0.70;;
17696;SDS011;8967;47.984;7.842;2023-11-19T14:30:53;0.65;;;0.63;;
17696;SDS011;8967;47.984;7.842;2023-11-19T14:33:22;1.35;;;0.68;;
17696;SDS011;8967;47.984;7.842;2023-11-19T14:35:52;2.40;;;1.02;;
17696;SDS011;8967;47.984;7.842;2023-11-19T14:38:19;3.30;;;1.08;;
17696;SDS011;8967;47.984;7.842;2023-11-19T14:40:48;2.75;;;0.90;;
17696;SDS011;8967;47.984;7.842;2023-11-19T14:43:15;0.98;;;0.80;;
17696;SDS011;8967;47.984;7.842;2023-11-19T14:45:42;2.80;;;0.88;;
17696;SDS011;8967;47.984;7.842;2023-11-19T14:48:13;3.47;;;1.30;;
17696;SDS011;8967;47.984;7.842;2023-11-19T14:50:40;4.22;;;1.27;;
17696;SDS011;8967;47.984;7.842;2023-11-19T14:53:09;2.45;;;1.35;;
17696;SDS011;8967;47.984;7.842;2023-11-19T14:55:38;0.98;;;0.75;;
17696;SDS011;8967;47.984;7.842;2023-11-19T14:58:05;3.70;;;1.40;;
17696;SDS011;8967;47.984;7.842;2023-11-19T15:00:33;1.60;;;0.88;;
17696;SDS011;8967;47.984;7.842;2023-11-19T15:03:00;2.25;;;1.00;;
17696;SDS011;8967;47.984;7.842;2023-11-19T15:05:28;2.95;;;1.30;;
17696;SDS011;8967;47.984;7.842;2023-11-19T15:07:58;2.53;;;1.10;;
17696;SDS011;8967;47.984;7.842;2023-11-19T15:10:25;1.98;;;1.10;;
17696;SDS011;8967;47.984;7.842;2023-11-19T15:12:53;6.32;;;1.70;;
17696;SDS011;8967;47.984;7.842;2023-11-19T15:15:20;4.93;;;0.93;;
17696;SDS011;8967;47.984;7.842;2023-11-19T15:17:49;1.70;;;1.27;;
17696;SDS011;8967;47.984;7.842;2023-11-19T15:20:16;3.05;;;1.02;;
17696;SDS011;8967;47.984;7.842;2023-11-19T15:22:47;2.50;;;0.70;;
17696;SDS011;8967;47.984;7.842;2023-11-19T15:25:15;1.20;;;1.10;;